Ash Ridge, Ohio
Current Conditions -  °F | °C
As of 5:35 PM on Sunday 21 Dec 2014 (Local Time) from KFGX Reporting Station
Clear Clear  
Wind Chill: 26°   Ceiling: Unl
Heat Index: 32°   Visibility: 10mi
Dew Point: 27°   Wind: 7mph
Humidity: 81%   Direction: 60°ENE
Pressure: 30.18"   Gusts: NA
Location:  38.8698°N, 83.9081°W
Report Text: KFGX 212235Z AUTO 06006KT 10SM CLR 00/M03 A3018 RMK AO2 T00001029
Loading
Personal Weather Stations






























Interactive Weather Map New forecast layout! Learn more

10-Day Weather Forecast

Advertisements
Track Severe Weather on mobile